Time;durP1;ratioP1;P1;durP2;ratioP2;P2;SDS_P1;SDS_P2;PMS_P1;PMS_P2;Temp;Humidity;BMP_temperature;BMP_pressure;BME280_temperature;BME280_humidity;BME280_pressure;Samples;Min_cycle;Max_cycle;Signal;HPM_P1;HPM_P2
2023/06/10 00:01:49;;;;;;;9.17;7.53;;;;;;;;;;6079333;23;20406;-93
2023/06/10 00:04:16;;;;;;;7.00;6.30;;;;;;;;;;6076455;23;20379;-93
2023/06/10 00:06:43;;;;;;;9.63;7.40;;;;;;;;;;6076804;23;20413;-93
2023/06/10 00:09:13;;;;;;;11.20;7.20;;;;;;;;;;6075919;23;20393;-94
2023/06/10 00:11:39;;;;;;;7.90;7.10;;;;;;;;;;6077599;23;20375;-93
2023/06/10 00:14:05;;;;;;;8.17;7.37;;;;;;;;;;6075140;23;20379;-93
2023/06/10 00:16:31;;;;;;;7.87;7.17;;;;;;;;;;6077641;23;20467;-94
2023/06/10 00:19:00;;;;;;;8.80;7.77;;;;;;;;;;6130795;23;20399;-93
2023/06/10 00:21:26;;;;;;;8.50;7.60;;;;;;;;;;6143885;23;20380;-93
2023/06/10 00:23:52;;;;;;;7.47;6.77;;;;;;;;;;6142139;23;20691;-94
2023/06/10 00:26:18;;;;;;;7.10;6.40;;;;;;;;;;6144455;23;20375;-94
2023/06/10 00:28:45;;;;;;;7.97;7.17;;;;;;;;;;6143018;23;20380;-93
2023/06/10 00:31:11;;;;;;;9.70;8.90;;;;;;;;;;6143866;23;20443;-93
2023/06/10 00:33:37;;;;;;;8.20;7.20;;;;;;;;;;6141691;23;20396;-94
2023/06/10 00:36:06;;;;;;;7.83;7.03;;;;;;;;;;6139611;23;20815;-93
2023/06/10 00:38:32;;;;;;;7.77;6.97;;;;;;;;;;6140324;23;20392;-93
2023/06/10 00:40:58;;;;;;;8.20;7.40;;;;;;;;;;6140637;23;20508;-92
2023/06/10 00:43:24;;;;;;;7.97;7.27;;;;;;;;;;6141175;23;20396;-93
2023/06/10 00:45:59;;;;;;;8.53;7.70;;;;;;;;;;6141234;23;20383;-93
2023/06/10 00:48:25;;;;;;;7.43;6.77;;;;;;;;;;6144063;23;20382;-91
2023/06/10 00:50:54;;;;;;;8.03;7.27;;;;;;;;;;6142748;23;20408;-93
2023/06/10 00:53:20;;;;;;;7.80;7.10;;;;;;;;;;6140812;23;20416;-93
2023/06/10 00:55:46;;;;;;;10.47;8.10;;;;;;;;;;6140787;23;20974;-93
2023/06/10 00:58:13;;;;;;;8.00;7.30;;;;;;;;;;6141693;23;20388;-93
2023/06/10 01:00:42;;;;;;;8.33;7.50;;;;;;;;;;6144742;23;20378;-93
2023/06/10 01:03:11;;;;;;;8.80;7.97;;;;;;;;;;6141083;23;20382;-93
2023/06/10 01:05:38;;;;;;;13.13;8.10;;;;;;;;;;6142433;23;20388;-93
2023/06/10 01:08:05;;;;;;;8.17;7.40;;;;;;;;;;6141732;23;20411;-93
2023/06/10 01:10:34;;;;;;;8.43;7.70;;;;;;;;;;6191598;23;20581;-93
2023/06/10 01:13:04;;;;;;;8.93;8.03;;;;;;;;;;6140012;23;20454;-93
2023/06/10 01:15:31;;;;;;;8.73;7.80;;;;;;;;;;6138460;23;20506;-92
2023/06/10 01:18:04;;;;;;;8.70;7.67;;;;;;;;;;6139985;23;20383;-93
2023/06/10 01:20:32;;;;;;;7.77;7.00;;;;;;;;;;6141712;23;20399;-93
2023/06/10 01:22:58;;;;;;;9.00;7.20;;;;;;;;;;6140415;23;20391;-92
2023/06/10 01:25:27;;;;;;;7.90;7.10;;;;;;;;;;6138757;23;20861;-93
2023/06/10 01:28:06;;;;;;;8.43;7.53;;;;;;;;;;6140131;23;20396;-92
2023/06/10 01:30:33;;;;;;;7.60;6.90;;;;;;;;;;6193371;23;20361;-93
2023/06/10 01:33:00;;;;;;;8.33;7.43;;;;;;;;;;6140025;23;20387;-93
2023/06/10 01:35:32;;;;;;;8.50;7.40;;;;;;;;;;6138999;23;20523;-93
2023/06/10 01:37:58;;;;;;;8.83;7.30;;;;;;;;;;6138795;23;20486;-94
2023/06/10 01:40:24;;;;;;;13.60;7.50;;;;;;;;;;6141697;23;20388;-93
2023/06/10 01:42:52;;;;;;;9.70;7.93;;;;;;;;;;6139366;23;20380;-93
2023/06/10 01:45:18;;;;;;;8.47;7.67;;;;;;;;;;6138801;23;20468;-92
2023/06/10 01:47:44;;;;;;;8.60;7.70;;;;;;;;;;6136809;23;20793;-93
2023/06/10 01:50:10;;;;;;;7.73;7.03;;;;;;;;;;6138620;23;20739;-93
2023/06/10 01:52:37;;;;;;;8.07;7.37;;;;;;;;;;6139428;23;20387;-93
2023/06/10 01:55:03;;;;;;;8.60;7.30;;;;;;;;;;6139776;23;20451;-93
2023/06/10 01:57:29;;;;;;;7.57;6.97;;;;;;;;;;6073940;23;20394;-93
2023/06/10 01:59:55;;;;;;;8.23;7.53;;;;;;;;;;6075942;23;20390;-92
2023/06/10 02:02:25;;;;;;;8.20;7.40;;;;;;;;;;6075201;23;20426;-93
2023/06/10 02:04:51;;;;;;;8.10;7.30;;;;;;;;;;6073005;23;20387;-93
2023/06/10 02:07:18;;;;;;;8.40;7.60;;;;;;;;;;6074288;23;20383;-93
2023/06/10 02:09:44;;;;;;;9.10;7.60;;;;;;;;;;6073711;23;20462;-93
2023/06/10 02:12:11;;;;;;;8.47;7.67;;;;;;;;;;6074782;23;20400;-93
2023/06/10 02:14:43;;;;;;;9.63;8.27;;;;;;;;;;6073623;23;20434;-93
2023/06/10 02:17:12;;;;;;;8.10;7.30;;;;;;;;;;6072212;23;20434;-92
2023/06/10 02:19:42;;;;;;;8.20;7.40;;;;;;;;;;6075388;23;20394;-94
2023/06/10 02:22:08;;;;;;;7.60;6.87;;;;;;;;;;6076360;23;20405;-94
2023/06/10 02:24:36;;;;;;;8.87;7.27;;;;;;;;;;6075547;23;20386;-93
2023/06/10 02:27:03;;;;;;;11.70;7.90;;;;;;;;;;6074571;23;20404;-93
2023/06/10 02:29:29;;;;;;;8.23;7.33;;;;;;;;;;6136296;23;20384;-93
2023/06/10 02:31:56;;;;;;;8.37;7.40;;;;;;;;;;6140250;23;20376;-93
2023/06/10 02:34:22;;;;;;;8.37;7.60;;;;;;;;;;6090004;23;20482;-93
2023/06/10 02:36:51;;;;;;;7.70;7.00;;;;;;;;;;6138293;23;20376;-93
2023/06/10 02:39:19;;;;;;;9.50;8.67;;;;;;;;;;6138365;23;20726;-92
2023/06/10 02:41:45;;;;;;;11.63;8.57;;;;;;;;;;6139862;23;20518;-93
2023/06/10 02:44:11;;;;;;;7.70;7.00;;;;;;;;;;6138791;23;20376;-93
2023/06/10 02:46:37;;;;;;;9.40;8.03;;;;;;;;;;6138656;23;20430;-93
2023/06/10 02:49:08;;;;;;;9.47;8.27;;;;;;;;;;6136709;23;20472;-92
2023/06/10 02:51:35;;;;;;;8.03;7.23;;;;;;;;;;6139513;23;20410;-93
2023/06/10 02:54:01;;;;;;;8.33;7.10;;;;;;;;;;6137784;23;20441;-94
2023/06/10 02:56:27;;;;;;;7.63;6.93;;;;;;;;;;6137483;23;20760;-93
2023/06/10 02:58:53;;;;;;;8.20;7.40;;;;;;;;;;6137286;23;20380;-92
2023/06/10 03:01:19;;;;;;;7.50;6.80;;;;;;;;;;6136462;23;20379;-92
2023/06/10 03:03:46;;;;;;;9.13;7.77;;;;;;;;;;6140320;23;20368;-93
2023/06/10 03:06:12;;;;;;;7.87;7.13;;;;;;;;;;6135168;23;20376;-93
2023/06/10 03:08:38;;;;;;;8.07;7.33;;;;;;;;;;6135535;23;20376;-93
2023/06/10 03:11:04;;;;;;;8.40;7.60;;;;;;;;;;6138683;23;20827;-93
2023/06/10 03:13:30;;;;;;;9.27;8.10;;;;;;;;;;6138860;23;20376;-93
2023/06/10 03:15:59;;;;;;;8.00;6.60;;;;;;;;;;6138207;23;20441;-93
2023/06/10 03:18:28;;;;;;;8.83;7.17;;;;;;;;;;6140271;23;20511;-93
2023/06/10 03:20:57;;;;;;;7.57;6.13;;;;;;;;;;6141314;23;20419;-93
2023/06/10 03:23:23;;;;;;;8.33;6.90;;;;;;;;;;6142338;23;20391;-93
2023/06/10 03:25:54;;;;;;;7.87;6.80;;;;;;;;;;6140393;23;20849;-93
2023/06/10 03:28:21;;;;;;;7.07;6.40;;;;;;;;;;6141709;23;20759;-93
2023/06/10 03:30:47;;;;;;;7.63;6.83;;;;;;;;;;6140864;23;20442;-94
2023/06/10 03:33:13;;;;;;;6.80;6.10;;;;;;;;;;6142225;23;20384;-93
2023/06/10 03:35:40;;;;;;;6.90;6.30;;;;;;;;;;6139339;23;20488;-93
2023/06/10 03:38:06;;;;;;;7.33;6.60;;;;;;;;;;6143051;23;20388;-93
2023/06/10 03:40:32;;;;;;;6.90;6.17;;;;;;;;;;6138696;23;20442;-93
2023/06/10 03:42:58;;;;;;;7.73;6.40;;;;;;;;;;6142914;23;20391;-93
2023/06/10 03:45:28;;;;;;;8.70;7.37;;;;;;;;;;6140771;23;20400;-93
2023/06/10 03:47:55;;;;;;;8.13;7.03;;;;;;;;;;6140953;23;20387;-93
2023/06/10 03:50:23;;;;;;;9.00;7.40;;;;;;;;;;6140242;23;20402;-93
2023/06/10 03:52:52;;;;;;;8.07;6.70;;;;;;;;;;6138888;23;20667;-94
2023/06/10 03:55:23;;;;;;;8.40;7.30;;;;;;;;;;6139845;23;20455;-94
2023/06/10 03:57:49;;;;;;;6.90;6.30;;;;;;;;;;6140622;23;20395;-94
2023/06/10 04:00:16;;;;;;;7.40;6.70;;;;;;;;;;6138397;23;20380;-93
2023/06/10 04:02:49;;;;;;;8.07;7.00;;;;;;;;;;6141238;23;20387;-93
2023/06/10 04:05:18;;;;;;;7.00;6.40;;;;;;;;;;6140347;23;20381;-93
2023/06/10 04:07:48;;;;;;;7.83;6.10;;;;;;;;;;6168120;23;20808;-93
2023/06/10 04:10:14;;;;;;;6.47;5.87;;;;;;;;;;6139358;23;20379;-91
2023/06/10 04:12:40;;;;;;;7.93;6.73;;;;;;;;;;6139990;23;20514;-92
2023/06/10 04:15:08;;;;;;;7.43;6.63;;;;;;;;;;6139753;23;20412;-92
2023/06/10 04:17:34;;;;;;;10.80;7.40;;;;;;;;;;6140252;23;20979;-91
2023/06/10 04:20:06;;;;;;;8.30;7.10;;;;;;;;;;6163087;23;20375;-91
2023/06/10 04:22:32;;;;;;;7.53;6.67;;;;;;;;;;6141611;23;20456;-92
2023/06/10 04:24:58;;;;;;;9.30;7.07;;;;;;;;;;6162100;23;20368;-92
2023/06/10 04:27:25;;;;;;;9.77;7.20;;;;;;;;;;6139910;23;20723;-92
2023/06/10 04:29:50;;;;;;;7.90;7.10;;;;;;;;;;6139527;23;20372;-92
2023/06/10 04:32:16;;;;;;;7.60;6.80;;;;;;;;;;6139694;23;20435;-91
2023/06/10 04:34:42;;;;;;;7.10;6.40;;;;;;;;;;6139671;23;20427;-92
2023/06/10 04:37:11;;;;;;;7.60;6.80;;;;;;;;;;6140361;23;20387;-92
2023/06/10 04:39:37;;;;;;;7.30;6.43;;;;;;;;;;6140347;23;20387;-92
2023/06/10 04:42:04;;;;;;;7.97;7.27;;;;;;;;;;6139942;23;20384;-92
2023/06/10 04:44:30;;;;;;;8.17;6.80;;;;;;;;;;6074553;23;20486;-91
2023/06/10 04:46:56;;;;;;;8.43;7.00;;;;;;;;;;6073641;23;20390;-92
2023/06/10 04:49:22;;;;;;;11.03;6.90;;;;;;;;;;6072727;23;20389;-92
2023/06/10 04:51:48;;;;;;;7.00;6.30;;;;;;;;;;6072025;23;20402;-92
2023/06/10 04:54:20;;;;;;;7.20;6.47;;;;;;;;;;6071734;23;20450;-92
2023/06/10 04:56:46;;;;;;;7.17;6.47;;;;;;;;;;6070572;23;20386;-91
2023/06/10 04:59:14;;;;;;;7.63;6.83;;;;;;;;;;6073755;23;20383;-91
2023/06/10 05:01:40;;;;;;;8.40;7.50;;;;;;;;;;6074182;23;20388;-91
2023/06/10 05:04:06;;;;;;;8.83;7.07;;;;;;;;;;6075043;23;20493;-92
2023/06/10 05:06:32;;;;;;;7.13;6.07;;;;;;;;;;6074580;23;20394;-91
2023/06/10 05:08:58;;;;;;;7.77;6.97;;;;;;;;;;6074245;23;20791;-91
2023/06/10 05:11:24;;;;;;;7.63;6.23;;;;;;;;;;6073398;23;20377;-92
2023/06/10 05:13:51;;;;;;;7.60;6.90;;;;;;;;;;6078193;23;20448;-91
2023/06/10 05:16:17;;;;;;;9.83;6.40;;;;;;;;;;6128222;23;20522;-92
2023/06/10 05:18:43;;;;;;;6.83;6.13;;;;;;;;;;6137985;23;20708;-93
2023/06/10 05:21:10;;;;;;;7.00;6.37;;;;;;;;;;6137083;23;20415;-92
2023/06/10 05:23:36;;;;;;;9.70;6.17;;;;;;;;;;6141676;23;20380;-91
2023/06/10 05:26:02;;;;;;;7.30;6.40;;;;;;;;;;6138482;23;20376;-92
2023/06/10 05:28:28;;;;;;;7.60;6.33;;;;;;;;;;6139251;23;20435;-92
2023/06/10 05:30:54;;;;;;;8.17;7.37;;;;;;;;;;6138308;23;20865;-91
2023/06/10 05:33:23;;;;;;;7.80;6.10;;;;;;;;;;6138453;23;20384;-91
2023/06/10 05:35:50;;;;;;;7.00;6.30;;;;;;;;;;6138785;23;20404;-92
2023/06/10 05:38:16;;;;;;;7.17;6.47;;;;;;;;;;6139602;23;20376;-92
2023/06/10 05:40:42;;;;;;;10.20;6.70;;;;;;;;;;6137373;23;20491;-91
2023/06/10 05:43:09;;;;;;;9.20;6.77;;;;;;;;;;6138992;23;20471;-93
2023/06/10 05:45:35;;;;;;;6.50;5.90;;;;;;;;;;6138803;23;20383;-93
2023/06/10 05:48:01;;;;;;;8.40;6.53;;;;;;;;;;6143202;23;20387;-91
2023/06/10 05:50:27;;;;;;;6.77;5.97;;;;;;;;;;6138314;23;20860;-92
2023/06/10 05:52:54;;;;;;;8.57;6.27;;;;;;;;;;6140207;23;20422;-92
2023/06/10 05:55:20;;;;;;;7.47;6.60;;;;;;;;;;6139207;23;21229;-92
2023/06/10 05:57:49;;;;;;;7.10;6.40;;;;;;;;;;6140463;23;20871;-92
2023/06/10 06:00:15;;;;;;;7.30;6.50;;;;;;;;;;6140258;23;20434;-91
2023/06/10 06:02:41;;;;;;;6.90;6.20;;;;;;;;;;6140112;23;20386;-92
2023/06/10 06:05:07;;;;;;;6.23;5.33;;;;;;;;;;6140607;23;20415;-91
2023/06/10 06:07:33;;;;;;;6.40;5.80;;;;;;;;;;6140363;23;20420;-92
2023/06/10 06:09:59;;;;;;;6.13;5.43;;;;;;;;;;6140800;23;20391;-92
2023/06/10 06:12:28;;;;;;;6.10;5.50;;;;;;;;;;6140274;23;20380;-92
2023/06/10 06:14:54;;;;;;;7.43;6.00;;;;;;;;;;6139866;23;20426;-92
2023/06/10 06:17:24;;;;;;;6.83;5.60;;;;;;;;;;6141930;23;20379;-92
2023/06/10 06:19:50;;;;;;;6.37;5.77;;;;;;;;;;6140311;23;20924;-93
2023/06/10 06:22:20;;;;;;;5.77;4.80;;;;;;;;;;6139261;23;20445;-92
2023/06/10 06:24:46;;;;;;;8.33;5.40;;;;;;;;;;6138888;23;20435;-91
2023/06/10 06:27:12;;;;;;;6.80;5.97;;;;;;;;;;6138900;23;20395;-92
2023/06/10 06:29:38;;;;;;;6.37;5.77;;;;;;;;;;6138565;23;20376;-92
2023/06/10 06:32:05;;;;;;;6.60;5.90;;;;;;;;;;6137848;23;20376;-92
2023/06/10 06:34:31;;;;;;;6.30;5.70;;;;;;;;;;6137270;23;20450;-92
2023/06/10 06:37:03;;;;;;;7.23;6.53;;;;;;;;;;6139075;23;20391;-92
2023/06/10 06:39:29;;;;;;;11.23;6.77;;;;;;;;;;6139164;23;20435;-92
2023/06/10 06:41:55;;;;;;;6.70;5.57;;;;;;;;;;6164004;23;20701;-92
2023/06/10 06:44:24;;;;;;;7.23;6.50;;;;;;;;;;6139224;23;20381;-92
2023/06/10 06:46:50;;;;;;;6.43;5.80;;;;;;;;;;6137391;23;20379;-92
2023/06/10 06:49:16;;;;;;;6.83;6.10;;;;;;;;;;6163465;23;20446;-92
2023/06/10 06:51:44;;;;;;;6.40;5.80;;;;;;;;;;6140707;23;20431;-92
2023/06/10 06:54:11;;;;;;;7.60;6.60;;;;;;;;;;6144971;23;20372;-92
2023/06/10 06:56:38;;;;;;;6.83;6.20;;;;;;;;;;6139213;23;20398;-92
2023/06/10 06:59:04;;;;;;;7.50;6.90;;;;;;;;;;6138979;23;20402;-92
2023/06/10 07:01:30;;;;;;;7.87;6.13;;;;;;;;;;6140504;23;20376;-92
2023/06/10 07:03:56;;;;;;;7.23;6.37;;;;;;;;;;6143076;23;20364;-93
2023/06/10 07:06:25;;;;;;;7.33;6.63;;;;;;;;;;6139646;23;20474;-92
2023/06/10 07:08:55;;;;;;;7.50;5.67;;;;;;;;;;6141639;23;20388;-92
2023/06/10 07:11:21;;;;;;;6.90;6.20;;;;;;;;;;6141664;23;20402;-92
2023/06/10 07:13:48;;;;;;;7.00;6.30;;;;;;;;;;6140999;23;20376;-92
2023/06/10 07:16:14;;;;;;;6.10;5.50;;;;;;;;;;6139956;23;20443;-94
2023/06/10 07:18:43;;;;;;;7.60;6.30;;;;;;;;;;6075248;23;20383;-93
2023/06/10 07:21:09;;;;;;;6.50;5.90;;;;;;;;;;6075785;23;20382;-94
2023/06/10 07:23:35;;;;;;;7.77;6.63;;;;;;;;;;6077337;23;20521;-94
2023/06/10 07:26:01;;;;;;;6.33;5.73;;;;;;;;;;6074436;23;20387;-94
2023/06/10 07:28:27;;;;;;;7.30;6.60;;;;;;;;;;6075577;23;20382;-95
2023/06/10 07:30:53;;;;;;;6.63;6.03;;;;;;;;;;6074303;23;20394;-94
2023/06/10 07:33:22;;;;;;;7.40;6.70;;;;;;;;;;6075967;23;20487;-94
2023/06/10 07:39:21;;;;;;;7.80;6.13;;;;;;;;;;6033228;23;20385;-95
2023/06/10 07:41:48;;;;;;;7.00;6.30;;;;;;;;;;6016622;23;20415;-93
2023/06/10 07:44:14;;;;;;;7.33;6.17;;;;;;;;;;6016372;23;20392;-94
2023/06/10 07:46:40;;;;;;;6.40;5.70;;;;;;;;;;6015731;23;20733;-94
2023/06/10 07:49:06;;;;;;;9.10;7.10;;;;;;;;;;6023412;23;20384;-93
2023/06/10 07:51:36;;;;;;;7.83;5.50;;;;;;;;;;6070083;23;20412;-93
2023/06/10 07:54:03;;;;;;;7.47;6.70;;;;;;;;;;6070524;23;20733;-94
2023/06/10 07:56:29;;;;;;;9.63;7.33;;;;;;;;;;6068392;23;20435;-94
2023/06/10 07:58:54;;;;;;;7.47;6.40;;;;;;;;;;6070742;23;20371;-94
2023/06/10 08:01:20;;;;;;;7.60;6.90;;;;;;;;;;6068512;23;20466;-94
2023/06/10 08:03:49;;;;;;;7.93;7.13;;;;;;;;;;6070325;23;21096;-93
2023/06/10 08:06:17;;;;;;;7.77;6.90;;;;;;;;;;6070537;23;20474;-94
2023/06/10 08:08:46;;;;;;;7.03;6.43;;;;;;;;;;6085959;23;20504;-94
2023/06/10 08:11:14;;;;;;;7.17;6.47;;;;;;;;;;6141365;23;20388;-93
2023/06/10 08:13:40;;;;;;;8.33;6.27;;;;;;;;;;6142696;23;20723;-92
2023/06/10 08:16:07;;;;;;;6.53;5.83;;;;;;;;;;6139553;23;20451;-92
2023/06/10 08:18:33;;;;;;;9.73;6.87;;;;;;;;;;6139150;23;20383;-93
2023/06/10 08:21:00;;;;;;;6.93;6.23;;;;;;;;;;6140392;23;20400;-92
2023/06/10 08:23:26;;;;;;;7.03;6.37;;;;;;;;;;6141063;23;20384;-92
2023/06/10 08:25:55;;;;;;;8.97;6.67;;;;;;;;;;6140076;23;20392;-93
2023/06/10 08:30:57;;;;;;;7.57;6.70;;;;;;;;;;6188955;23;20419;-89
2023/06/10 08:33:23;;;;;;;8.90;6.93;;;;;;;;;;6163752;23;20423;-88
2023/06/10 08:35:48;;;;;;;6.97;6.20;;;;;;;;;;6136611;23;20424;-89
2023/06/10 08:38:16;;;;;;;6.90;6.17;;;;;;;;;;6135958;23;20383;-88
2023/06/10 08:40:42;;;;;;;7.47;6.47;;;;;;;;;;6160679;23;20364;-88
2023/06/10 08:43:11;;;;;;;6.43;5.83;;;;;;;;;;6139867;23;20374;-88
2023/06/10 08:45:37;;;;;;;7.33;6.63;;;;;;;;;;6161458;23;20364;-88
2023/06/10 08:48:06;;;;;;;7.23;6.20;;;;;;;;;;6138156;23;20423;-88
2023/06/10 08:50:39;;;;;;;7.30;6.60;;;;;;;;;;6161559;23;20368;-88
2023/06/10 08:53:05;;;;;;;7.40;6.00;;;;;;;;;;6139039;23;20415;-89
2023/06/10 08:55:32;;;;;;;6.93;6.00;;;;;;;;;;6136338;23;20450;-88
2023/06/10 08:58:00;;;;;;;6.43;5.73;;;;;;;;;;6142559;23;20376;-88
2023/06/10 09:00:26;;;;;;;9.57;5.50;;;;;;;;;;6137937;23;20391;-88
2023/06/10 09:02:52;;;;;;;7.07;6.00;;;;;;;;;;6139599;23;20461;-88
2023/06/10 09:05:18;;;;;;;7.17;6.47;;;;;;;;;;6162223;23;20395;-88
2023/06/10 09:07:44;;;;;;;6.57;5.87;;;;;;;;;;6138392;23;20406;-88
2023/06/10 09:10:10;;;;;;;6.50;5.80;;;;;;;;;;6138093;23;20372;-87
2023/06/10 09:12:37;;;;;;;5.80;5.13;;;;;;;;;;6138398;23;20391;-88
2023/06/10 09:15:04;;;;;;;6.50;5.97;;;;;;;;;;6138728;23;20920;-88
2023/06/10 09:17:30;;;;;;;6.00;5.40;;;;;;;;;;6137812;23;20395;-87
2023/06/10 09:19:56;;;;;;;6.33;5.67;;;;;;;;;;6161671;23;20403;-88
2023/06/10 09:22:23;;;;;;;7.80;6.23;;;;;;;;;;6136171;23;20962;-89
2023/06/10 09:24:49;;;;;;;7.13;6.20;;;;;;;;;;6136238;23;20384;-88
2023/06/10 09:27:15;;;;;;;7.43;6.17;;;;;;;;;;6139172;23;20395;-88
2023/06/10 09:29:57;;;;;;;6.70;6.10;;;;;;;;;;6161842;23;20368;-89
2023/06/10 09:32:24;;;;;;;6.87;6.17;;;;;;;;;;6138074;23;20376;-89
2023/06/10 09:34:52;;;;;;;6.80;6.20;;;;;;;;;;6160873;23;20506;-89
2023/06/10 09:37:22;;;;;;;7.40;6.37;;;;;;;;;;6136648;23;20423;-88
2023/06/10 09:40:05;;;;;;;6.90;6.20;;;;;;;;;;6136615;23;20474;-88
2023/06/10 09:42:33;;;;;;;6.43;5.83;;;;;;;;;;6136326;23;20396;-89
2023/06/10 09:44:58;;;;;;;6.70;6.10;;;;;;;;;;6136685;23;20773;-88
2023/06/10 09:47:24;;;;;;;7.00;6.30;;;;;;;;;;6137553;23;20364;-89
2023/06/10 09:49:53;;;;;;;5.83;5.23;;;;;;;;;;6137169;23;20423;-87
2023/06/10 09:52:25;;;;;;;7.40;6.10;;;;;;;;;;6162394;23;20371;-88
2023/06/10 09:54:52;;;;;;;6.07;5.47;;;;;;;;;;6137313;23;20424;-88
2023/06/10 09:57:18;;;;;;;6.13;5.53;;;;;;;;;;6136599;23;20380;-88
2023/06/10 09:59:45;;;;;;;6.70;6.07;;;;;;;;;;6136330;23;20372;-87
2023/06/10 10:02:15;;;;;;;6.43;5.80;;;;;;;;;;6141588;23;20390;-88
2023/06/10 10:04:41;;;;;;;6.30;5.70;;;;;;;;;;6072957;23;20501;-88
2023/06/10 10:07:08;;;;;;;6.23;5.63;;;;;;;;;;6049115;23;20410;-88
2023/06/10 10:09:34;;;;;;;6.67;6.07;;;;;;;;;;6049255;23;20980;-86
2023/06/10 10:12:00;;;;;;;6.67;6.07;;;;;;;;;;6047666;23;20399;-86
2023/06/10 10:14:28;;;;;;;6.93;6.27;;;;;;;;;;6050055;23;20393;-87
2023/06/10 10:16:54;;;;;;;7.40;5.97;;;;;;;;;;6047404;23;20418;-87
2023/06/10 10:19:21;;;;;;;6.73;6.10;;;;;;;;;;6047602;23;20388;-87
2023/06/10 10:21:54;;;;;;;7.10;6.43;;;;;;;;;;6048305;23;20383;-88
2023/06/10 10:24:23;;;;;;;7.30;6.70;;;;;;;;;;6049679;23;20426;-88
2023/06/10 10:26:51;;;;;;;6.83;6.10;;;;;;;;;;6051165;23;20508;-87
2023/06/10 10:29:32;;;;;;;6.93;6.33;;;;;;;;;;6052140;23;20431;-87
2023/06/10 10:32:04;;;;;;;6.30;5.70;;;;;;;;;;6053398;23;20461;-87
2023/06/10 10:34:32;;;;;;;8.60;6.57;;;;;;;;;;6079777;23;20703;-88
2023/06/10 10:36:58;;;;;;;7.30;6.60;;;;;;;;;;6140644;23;20391;-87
2023/06/10 10:39:24;;;;;;;7.50;6.80;;;;;;;;;;6140849;23;20379;-88
2023/06/10 10:41:50;;;;;;;6.67;6.03;;;;;;;;;;6165211;23;20862;-88
2023/06/10 10:44:16;;;;;;;7.10;5.80;;;;;;;;;;6165620;23;20371;-88
2023/06/10 10:46:45;;;;;;;7.50;6.00;;;;;;;;;;6141033;23;20384;-88
2023/06/10 10:49:13;;;;;;;6.90;6.30;;;;;;;;;;6138243;23;20384;-87
2023/06/10 10:51:40;;;;;;;8.10;5.80;;;;;;;;;;6139632;23;20380;-87
2023/06/10 10:54:10;;;;;;;8.47;7.70;;;;;;;;;;6139885;23;20412;-87
2023/06/10 10:56:36;;;;;;;7.70;7.00;;;;;;;;;;6141396;23;20422;-86
2023/06/10 10:59:05;;;;;;;7.77;7.07;;;;;;;;;;6135506;23;20376;-87
2023/06/10 11:01:46;;;;;;;8.03;6.00;;;;;;;;;;6137156;23;20388;-87
2023/06/10 11:04:12;;;;;;;7.23;6.40;;;;;;;;;;6168791;23;20845;-88
2023/06/10 11:06:38;;;;;;;7.03;6.43;;;;;;;;;;6137276;23;20383;-88
2023/06/10 11:09:23;;;;;;;6.83;6.10;;;;;;;;;;6140934;23;20403;-88
2023/06/10 11:11:52;;;;;;;7.30;6.67;;;;;;;;;;6162296;23;20374;-88
2023/06/10 11:14:28;;;;;;;6.70;6.10;;;;;;;;;;6140331;23;20458;-87
2023/06/10 11:16:55;;;;;;;6.90;6.30;;;;;;;;;;6137526;23;20850;-88
2023/06/10 11:19:38;;;;;;;7.43;6.73;;;;;;;;;;6163739;23;20811;-87
2023/06/10 11:22:06;;;;;;;6.90;6.30;;;;;;;;;;6137667;23;20418;-88
2023/06/10 11:24:32;;;;;;;7.50;6.40;;;;;;;;;;6163026;23;20496;-89
2023/06/10 11:27:17;;;;;;;5.93;5.43;;;;;;;;;;6164027;23;20904;-87
2023/06/10 11:29:56;;;;;;;7.03;6.30;;;;;;;;;;6161983;23;20379;-88
2023/06/10 11:32:23;;;;;;;6.80;6.20;;;;;;;;;;6137570;23;20380;-89
2023/06/10 11:34:54;;;;;;;7.23;6.23;;;;;;;;;;6142188;23;20419;-87
2023/06/10 11:37:21;;;;;;;6.87;6.27;;;;;;;;;;6136161;23;20390;-89
2023/06/10 11:39:48;;;;;;;7.87;6.50;;;;;;;;;;6136786;23;20707;-88
2023/06/10 11:42:14;;;;;;;7.53;6.47;;;;;;;;;;6137492;23;20384;-88
2023/06/10 11:44:39;;;;;;;6.50;6.00;;;;;;;;;;6138468;23;20368;-88
2023/06/10 11:47:06;;;;;;;5.80;5.30;;;;;;;;;;6162583;23;20380;-88
2023/06/10 11:49:32;;;;;;;6.10;5.60;;;;;;;;;;6138980;23;20475;-88
2023/06/10 11:51:58;;;;;;;6.53;6.00;;;;;;;;;;6137919;23;20380;-87
2023/06/10 11:54:24;;;;;;;6.67;6.07;;;;;;;;;;6139126;23;20372;-88
2023/06/10 11:56:50;;;;;;;6.90;6.33;;;;;;;;;;6138003;23;20669;-89
2023/06/10 11:59:16;;;;;;;6.50;5.90;;;;;;;;;;6137843;23;20386;-88
2023/06/10 12:01:45;;;;;;;7.60;5.70;;;;;;;;;;6136912;23;20384;-88
2023/06/10 12:04:12;;;;;;;6.70;5.93;;;;;;;;;;6137995;23;20399;-86
2023/06/10 12:06:46;;;;;;;7.00;6.40;;;;;;;;;;6136566;23;20388;-88
2023/06/10 12:09:15;;;;;;;10.30;6.50;;;;;;;;;;6166280;23;20384;-88
2023/06/10 12:11:41;;;;;;;7.33;5.97;;;;;;;;;;6162572;23;20376;-88
2023/06/10 12:14:07;;;;;;;6.00;5.50;;;;;;;;;;6139613;23;20787;-88
2023/06/10 12:16:33;;;;;;;6.07;5.57;;;;;;;;;;6137215;23;20414;-88
2023/06/10 12:19:03;;;;;;;6.70;6.20;;;;;;;;;;6162701;23;20181;-88
2023/06/10 12:21:29;;;;;;;6.40;5.80;;;;;;;;;;6137315;23;20558;-88
2023/06/10 12:24:02;;;;;;;6.57;5.40;;;;;;;;;;6136806;23;20375;-88
2023/06/10 12:26:45;;;;;;;12.73;7.50;;;;;;;;;;6135359;23;20380;-87
2023/06/10 12:29:14;;;;;;;6.70;6.00;;;;;;;;;;6137409;23;20412;-86
2023/06/10 12:31:56;;;;;;;6.70;6.10;;;;;;;;;;6158872;23;20420;-88
2023/06/10 12:34:38;;;;;;;6.50;5.90;;;;;;;;;;6137143;23;20380;-88
2023/06/10 12:37:04;;;;;;;6.30;5.57;;;;;;;;;;6137103;23;20384;-88
2023/06/10 12:39:31;;;;;;;6.07;5.57;;;;;;;;;;6138899;23;20440;-88
2023/06/10 12:41:57;;;;;;;5.40;4.90;;;;;;;;;;6137959;23;20383;-89
2023/06/10 12:44:35;;;;;;;6.43;5.60;;;;;;;;;;6167294;23;20372;-89
2023/06/10 12:47:01;;;;;;;5.97;5.37;;;;;;;;;;6162060;23;20368;-89
2023/06/10 12:49:27;;;;;;;6.37;5.77;;;;;;;;;;6162926;23;20516;-88
2023/06/10 12:51:53;;;;;;;5.90;5.37;;;;;;;;;;6136501;23;20380;-88
2023/06/10 12:54:19;;;;;;;6.17;5.67;;;;;;;;;;6137829;23;20406;-88
2023/06/10 12:56:45;;;;;;;6.67;6.00;;;;;;;;;;6137658;23;20479;-88
2023/06/10 12:59:11;;;;;;;6.40;5.20;;;;;;;;;;6162961;23;20408;-88
2023/06/10 13:01:39;;;;;;;5.30;4.80;;;;;;;;;;6137301;23;20400;-87
2023/06/10 13:04:06;;;;;;;5.90;5.30;;;;;;;;;;6137507;23;20406;-89
2023/06/10 13:06:36;;;;;;;5.23;4.80;;;;;;;;;;6138332;23;20443;-88
2023/06/10 13:09:02;;;;;;;5.70;4.90;;;;;;;;;;6138353;23;20383;-88
2023/06/10 13:11:28;;;;;;;5.90;5.40;;;;;;;;;;6136707;23;20728;-88
2023/06/10 13:13:54;;;;;;;5.30;4.80;;;;;;;;;;6138020;23;20404;-87
2023/06/10 13:16:20;;;;;;;5.00;4.50;;;;;;;;;;6137732;23;20922;-88
2023/06/10 13:18:46;;;;;;;5.60;5.10;;;;;;;;;;6140816;23;20392;-88
2023/06/10 13:21:12;;;;;;;5.90;5.40;;;;;;;;;;6137982;23;20411;-88
2023/06/10 13:23:38;;;;;;;6.17;5.57;;;;;;;;;;6138163;23;20380;-89
2023/06/10 13:26:04;;;;;;;6.07;5.57;;;;;;;;;;6137083;23;20682;-88
2023/06/10 13:28:33;;;;;;;5.47;4.97;;;;;;;;;;6139784;23;20364;-88
2023/06/10 13:30:59;;;;;;;5.77;5.27;;;;;;;;;;6189483;23;20395;-88
2023/06/10 13:33:25;;;;;;;5.47;4.97;;;;;;;;;;6138268;23;20388;-90
2023/06/10 13:35:51;;;;;;;5.97;5.47;;;;;;;;;;6162329;23;20977;-87
2023/06/10 13:38:17;;;;;;;5.43;4.93;;;;;;;;;;6137713;23;20388;-88
2023/06/10 13:40:44;;;;;;;8.50;5.37;;;;;;;;;;6138597;23;20375;-88
2023/06/10 13:43:10;;;;;;;5.37;4.83;;;;;;;;;;6137841;23;20451;-85
2023/06/10 13:45:36;;;;;;;5.50;5.00;;;;;;;;;;6139760;23;20410;-88
2023/06/10 13:48:04;;;;;;;5.30;4.80;;;;;;;;;;6138802;23;20380;-85
2023/06/10 13:50:30;;;;;;;5.10;4.70;;;;;;;;;;6141564;23;20446;-87
2023/06/10 13:52:56;;;;;;;5.20;4.70;;;;;;;;;;6139119;23;20897;-87
2023/06/10 13:55:23;;;;;;;6.17;5.60;;;;;;;;;;6138876;23;20420;-89
2023/06/10 13:57:49;;;;;;;6.20;4.90;;;;;;;;;;6138107;23;20856;-86
2023/06/10 14:00:16;;;;;;;6.90;5.43;;;;;;;;;;6163495;23;20375;-87
2023/06/10 14:02:42;;;;;;;5.50;5.00;;;;;;;;;;6163257;23;20371;-86
2023/06/10 14:05:08;;;;;;;5.27;4.77;;;;;;;;;;6140582;23;20388;-87
2023/06/10 14:07:35;;;;;;;6.00;5.33;;;;;;;;;;6137359;23;20383;-89
2023/06/10 14:10:00;;;;;;;5.73;5.20;;;;;;;;;;6163241;23;20368;-89
2023/06/10 14:12:26;;;;;;;5.30;4.90;;;;;;;;;;6160971;23;20760;-89
2023/06/10 14:14:52;;;;;;;5.40;4.90;;;;;;;;;;6137628;23;20427;-87
2023/06/10 14:17:18;;;;;;;7.47;5.20;;;;;;;;;;6137814;23;20423;-87
2023/06/10 14:19:44;;;;;;;5.27;4.80;;;;;;;;;;6143800;23;20384;-87
2023/06/10 14:22:10;;;;;;;5.60;5.10;;;;;;;;;;6136387;23;20931;-87
2023/06/10 14:24:37;;;;;;;6.30;5.77;;;;;;;;;;6137595;23;21021;-87
2023/06/10 14:27:03;;;;;;;5.20;4.70;;;;;;;;;;6137040;23;20665;-87
2023/06/10 14:29:30;;;;;;;5.37;4.87;;;;;;;;;;6137673;23;20411;-87
2023/06/10 14:31:56;;;;;;;6.40;5.40;;;;;;;;;;6136491;23;20730;-89
2023/06/10 14:34:28;;;;;;;5.20;4.70;;;;;;;;;;6137514;23;20400;-87
2023/06/10 14:36:54;;;;;;;5.97;5.47;;;;;;;;;;6137552;23;20702;-87
2023/06/10 14:39:20;;;;;;;5.60;5.10;;;;;;;;;;6136497;23;20434;-86
2023/06/10 14:41:46;;;;;;;5.60;4.70;;;;;;;;;;6135982;23;20513;-88
2023/06/10 14:44:12;;;;;;;5.73;4.80;;;;;;;;;;6136679;23;20415;-89
2023/06/10 14:46:38;;;;;;;5.97;4.83;;;;;;;;;;6135353;23;20446;-86
2023/06/10 14:49:04;;;;;;;5.87;5.23;;;;;;;;;;6135935;23;20371;-86
2023/06/10 14:51:30;;;;;;;9.63;5.70;;;;;;;;;;6135758;23;20402;-90